Pavlodar Airport
UASP : now visible

Airfield :











YOU CAN JOIN US ON...

 
LOGIN :

Register | Disclaimer

   EN    FR    IT 

 









Legend :    VFR   Marginal VFR   IFR   Intensive IFR   Very Intensive IFR
Visi :
Ceiling :
>= 8 km
>= 3000ft
5 to 8 km
1000 to 3000 ft
1500m to 5 km
500 to 1000 ft
800 to 1500m
200 to 500 ft
< 800m
< 200 ft
Symbols :   Thunderstorms  Fog  Heavy snow  Heavy precipitations  Wind > 20 kt






- Airport Elevation : 410 ft
- IATA code : PWQ


UASP - Pavlodar

CURRENT METAR :
  • 252200Z 21005MPS CAVOK M15/M17 Q1017 R21/820150 NOSIG RMK QFE751/1002

EXPIRED METARs :
  • 252130Z 21005MPS CAVOK M14/M17 Q1017 R21/820150 NOSIG RMK QFE751/1002
  • 252100Z 23007MPS 9999 DRSN NSC M14/M16 Q1017 R21/820150 NOSIG RMK QFE751/1002
  • 252030Z 20005MPS 180V240 9999 DRSN NSC M14/M17 Q1017 R21/820150 NOSIG RMK QFE751/1002
  • 252000Z 24006MPS 9999 DRSN NSC M12/M15 Q1016 R21/820150 NOSIG RMK QFE751/1001
  • 251930Z 23006MPS 9999 DRSN NSC M12/M16 Q1016 R21/820150 NOSIG RMK QFE751/1002

TAF COR TAF UASP
Valid from the 25 at 21:00 until the 26 at 06:00 UTC


252000Z 2521/2606 23007MPS 9999 DRSN BKN011
TEMPO 2521/2524 24013MPS 2100 -SN BLSN BKN004
TEMPO 2600/2606 22015MPS 2100 -SN BLSN BKN006



MET'MAP, your aeronautical weather chart ! - Copyright ORBIFLY December 2007 - Disclaimer

ORBIFLY MET'MAP TEAM :

Programming & Development : Alexandra Zaïnal
Concept & original design : Baudouin d'Aumeries
Assistance for programming : Marc-Olivier Méhu
Technical & hardware support : Manuel Goepfert

Contact : metmap@orbifly.com




SOURCES & CREDITS :

   NOAA       Earth
Advisory